createdAt,value
2022-07-25T00:00:26.476Z,16.00
2022-07-25T00:02:53.398Z,16.00
2022-07-25T00:05:21.166Z,16.00
2022-07-25T00:07:48.387Z,16.00
2022-07-25T00:10:15.481Z,15.90
2022-07-25T00:12:42.547Z,15.90
2022-07-25T00:15:10.160Z,15.90
2022-07-25T00:17:37.146Z,15.80
2022-07-25T00:20:05.545Z,15.90
2022-07-25T00:22:32.733Z,15.90
2022-07-25T00:24:59.674Z,15.90
2022-07-25T00:27:27.061Z,15.90
2022-07-25T00:29:54.026Z,15.90
2022-07-25T00:32:21.225Z,15.90
2022-07-25T00:34:48.165Z,15.90
2022-07-25T00:37:15.212Z,15.90
2022-07-25T00:39:42.127Z,16.00
2022-07-25T00:42:09.092Z,15.90
2022-07-25T00:44:36.026Z,15.90
2022-07-25T00:47:02.986Z,15.90
2022-07-25T00:49:30.066Z,15.90
2022-07-25T00:51:57.163Z,15.90
2022-07-25T00:54:24.193Z,15.90
2022-07-25T00:56:51.666Z,15.90
2022-07-25T00:59:18.969Z,15.90
2022-07-25T01:01:48.482Z,15.80
2022-07-25T01:04:16.235Z,15.80
2022-07-25T01:06:43.531Z,15.80
2022-07-25T01:09:10.704Z,15.80
2022-07-25T01:11:38.179Z,15.70
2022-07-25T01:14:06.123Z,15.70
2022-07-25T01:16:33.429Z,15.70
2022-07-25T01:19:00.578Z,15.60
2022-07-25T01:21:27.602Z,15.60
2022-07-25T01:23:54.657Z,15.50
2022-07-25T01:26:21.965Z,15.50
2022-07-25T01:28:48.944Z,15.40
2022-07-25T01:31:15.986Z,15.40
2022-07-25T01:33:42.925Z,15.40
2022-07-25T01:36:10.031Z,15.50
2022-07-25T01:38:37.017Z,15.50
2022-07-25T01:41:04.068Z,15.50
2022-07-25T01:43:31.005Z,15.50
2022-07-25T01:45:57.975Z,15.40
2022-07-25T01:48:25.040Z,15.40
2022-07-25T01:50:52.048Z,15.40
2022-07-25T01:53:19.470Z,15.30
2022-07-25T01:55:47.309Z,15.20
2022-07-25T01:58:14.355Z,15.20
2022-07-25T02:00:41.557Z,15.10
2022-07-25T02:03:27.312Z,15.10
2022-07-25T02:05:54.353Z,15.00
2022-07-25T02:08:21.291Z,14.90
2022-07-25T02:10:48.222Z,14.90
2022-07-25T02:13:15.112Z,14.80
2022-07-25T02:15:42.122Z,14.90
2022-07-25T02:18:09.054Z,14.90
2022-07-25T02:20:36.058Z,14.80
2022-07-25T02:23:04.048Z,14.90
2022-07-25T02:25:31.026Z,14.90
2022-07-25T02:27:58.078Z,14.90
2022-07-25T02:30:26.257Z,14.90
2022-07-25T02:32:53.414Z,14.80
2022-07-25T02:35:20.844Z,14.80
2022-07-25T02:37:47.818Z,14.80
2022-07-25T02:40:14.779Z,14.80
2022-07-25T02:42:41.826Z,14.80
2022-07-25T02:45:09.203Z,14.80
2022-07-25T02:47:36.099Z,14.80
2022-07-25T02:50:03.276Z,14.80
2022-07-25T02:52:30.238Z,14.80
2022-07-25T02:54:57.122Z,14.80
2022-07-25T02:57:24.063Z,14.80
2022-07-25T02:59:50.951Z,14.80
2022-07-25T03:02:18.680Z,14.80
2022-07-25T03:04:45.619Z,14.80
2022-07-25T03:07:12.550Z,14.90
2022-07-25T03:09:39.521Z,14.90
2022-07-25T03:12:06.535Z,14.90
2022-07-25T03:14:33.428Z,14.90
2022-07-25T03:17:00.386Z,14.90
2022-07-25T03:19:27.494Z,14.90
2022-07-25T03:21:54.576Z,14.90
2022-07-25T03:24:21.543Z,15.00
2022-07-25T03:26:48.459Z,15.00
2022-07-25T03:29:15.331Z,15.00
2022-07-25T03:31:42.325Z,15.00
2022-07-25T03:34:09.588Z,15.00
2022-07-25T03:36:36.869Z,15.00
2022-07-25T03:39:05.376Z,15.00
2022-07-25T03:41:32.924Z,15.10
2022-07-25T03:43:59.893Z,15.00
2022-07-25T03:46:26.962Z,15.00
2022-07-25T03:48:55.611Z,15.00
2022-07-25T03:51:22.797Z,15.10
2022-07-25T03:54:06.377Z,15.10
2022-07-25T03:56:43.366Z,15.00
2022-07-25T03:59:13.489Z,15.00
2022-07-25T04:01:41.418Z,15.00
2022-07-25T04:04:10.110Z,14.90
2022-07-25T04:06:38.143Z,14.90
2022-07-25T04:09:05.290Z,14.80
2022-07-25T04:11:32.717Z,14.80
2022-07-25T04:13:59.695Z,14.80
2022-07-25T04:16:27.785Z,14.80
2022-07-25T04:18:55.354Z,14.70
2022-07-25T04:21:24.186Z,14.70
2022-07-25T04:23:51.542Z,14.60
2022-07-25T04:26:19.068Z,14.60
2022-07-25T04:28:46.260Z,14.60
2022-07-25T04:31:13.347Z,14.50
2022-07-25T04:33:41.498Z,14.50
2022-07-25T04:36:08.766Z,14.60
2022-07-25T04:38:36.281Z,14.60
2022-07-25T04:41:04.291Z,14.60
2022-07-25T04:43:31.384Z,14.60
2022-07-25T04:45:58.485Z,14.70
2022-07-25T04:48:25.587Z,14.70
2022-07-25T04:50:53.709Z,14.60
2022-07-25T04:53:20.674Z,14.70
2022-07-25T04:55:47.623Z,14.70
2022-07-25T04:58:14.533Z,14.70
2022-07-25T05:00:41.845Z,14.70
2022-07-25T05:03:08.889Z,14.70
2022-07-25T05:05:35.985Z,14.70
2022-07-25T05:08:03.393Z,14.80
2022-07-25T05:10:30.749Z,14.90
2022-07-25T05:12:57.714Z,14.90
2022-07-25T05:15:24.935Z,14.90
2022-07-25T05:17:51.922Z,14.90
2022-07-25T05:20:18.958Z,14.90
2022-07-25T05:22:45.940Z,15.00
2022-07-25T05:25:12.985Z,15.00
2022-07-25T05:27:40.587Z,15.00
2022-07-25T05:30:09.517Z,15.10
2022-07-25T05:32:36.524Z,15.20
2022-07-25T05:35:04.447Z,15.30
2022-07-25T05:37:31.355Z,15.30
2022-07-25T05:39:58.276Z,15.40
2022-07-25T05:42:25.315Z,15.50
2022-07-25T05:44:52.356Z,15.60
2022-07-25T05:47:19.297Z,15.70
2022-07-25T05:49:46.173Z,15.80
2022-07-25T05:52:13.702Z,15.80
2022-07-25T05:54:41.658Z,15.90
2022-07-25T05:57:09.082Z,16.00
2022-07-25T05:59:36.394Z,16.00
2022-07-25T06:02:04.051Z,16.10
2022-07-25T06:04:31.172Z,16.20
2022-07-25T06:06:58.114Z,16.30
2022-07-25T06:09:25.154Z,16.40
2022-07-25T06:12:00.335Z,16.50
2022-07-25T06:14:29.498Z,16.50
2022-07-25T06:16:57.229Z,16.60
2022-07-25T06:19:24.360Z,16.60
2022-07-25T06:21:51.249Z,16.50
2022-07-25T06:24:18.274Z,16.60
2022-07-25T06:26:45.281Z,16.60
2022-07-25T06:29:12.436Z,16.70
2022-07-25T06:31:39.598Z,16.80
2022-07-25T06:34:07.136Z,16.90
2022-07-25T06:36:34.649Z,16.90
2022-07-25T06:39:01.873Z,17.00
2022-07-25T06:41:28.784Z,17.00
2022-07-25T06:43:55.678Z,17.20
2022-07-25T06:46:22.618Z,17.30
2022-07-25T06:48:49.745Z,17.30
2022-07-25T06:51:16.901Z,17.50
2022-07-25T06:53:43.874Z,17.60
2022-07-25T06:56:15.728Z,17.60
2022-07-25T06:58:44.774Z,17.70
2022-07-25T07:01:11.805Z,17.80
2022-07-25T07:03:40.235Z,17.80
2022-07-25T07:06:09.622Z,17.90
2022-07-25T07:08:37.034Z,17.80
2022-07-25T07:11:04.692Z,17.80
2022-07-25T07:13:31.588Z,17.70
2022-07-25T07:15:58.607Z,17.90
2022-07-25T07:18:25.670Z,17.80
2022-07-25T07:20:52.926Z,17.80
2022-07-25T07:23:20.056Z,17.70
2022-07-25T07:25:47.644Z,17.70
2022-07-25T07:28:15.070Z,17.80
2022-07-25T07:33:29.181Z,17.80
2022-07-25T07:35:57.216Z,17.90
2022-07-25T07:38:24.952Z,17.90
2022-07-25T07:40:52.605Z,18.00
2022-07-25T07:43:20.284Z,18.00
2022-07-25T07:45:47.389Z,18.10
2022-07-25T07:48:14.403Z,18.10
2022-07-25T07:50:41.483Z,18.10
2022-07-25T07:53:08.504Z,18.10
2022-07-25T07:55:44.544Z,18.20
2022-07-25T07:58:20.663Z,18.20
2022-07-25T08:00:48.544Z,18.20
2022-07-25T08:03:21.213Z,18.20
2022-07-25T08:05:49.471Z,18.10
2022-07-25T08:08:16.926Z,18.10
2022-07-25T08:10:46.499Z,18.00
2022-07-25T08:13:22.629Z,18.00
2022-07-25T08:15:58.076Z,18.00
2022-07-25T08:18:26.667Z,17.90
2022-07-25T08:20:53.910Z,17.90
2022-07-25T08:23:20.930Z,17.90
2022-07-25T08:25:48.308Z,17.90
2022-07-25T08:28:15.335Z,18.00
2022-07-25T08:30:42.678Z,17.90
2022-07-25T08:33:13.342Z,17.90
2022-07-25T08:35:41.948Z,17.60
2022-07-25T08:38:11.631Z,17.40
2022-07-25T08:40:39.050Z,17.30
2022-07-25T08:43:06.187Z,17.20
2022-07-25T08:55:45.790Z,16.70
2022-07-25T08:58:14.736Z,16.40
2022-07-25T09:00:42.892Z,16.40
2022-07-25T09:03:10.660Z,16.40
2022-07-25T09:05:38.446Z,16.40
2022-07-25T09:08:14.257Z,16.30
2022-07-25T09:10:52.493Z,16.20
2022-07-25T09:13:22.300Z,16.10
2022-07-25T09:15:52.090Z,16.10
2022-07-25T09:18:23.770Z,16.10
2022-07-25T09:20:53.292Z,16.00
2022-07-25T09:23:37.869Z,16.00
2022-07-25T09:26:05.748Z,16.00
2022-07-25T09:28:47.610Z,15.90
2022-07-25T09:31:16.356Z,15.80
2022-07-25T09:33:49.078Z,15.80
2022-07-25T09:36:16.448Z,15.90
2022-07-25T09:38:57.630Z,15.90
2022-07-25T09:41:35.125Z,15.80
2022-07-25T09:44:02.249Z,15.80
2022-07-25T09:46:33.460Z,15.80
2022-07-25T09:49:01.184Z,15.70
2022-07-25T09:51:29.154Z,15.60
2022-07-25T09:53:56.210Z,15.60
2022-07-25T09:56:23.097Z,15.60
2022-07-25T09:58:50.014Z,15.50
2022-07-25T10:01:26.081Z,15.50
2022-07-25T10:03:59.179Z,15.50
2022-07-25T10:06:49.646Z,15.40
2022-07-25T10:09:16.935Z,15.40
2022-07-25T10:12:10.761Z,15.40
2022-07-25T10:14:38.749Z,15.30
2022-07-25T10:17:06.625Z,15.30
2022-07-25T10:19:56.840Z,15.40
2022-07-25T10:22:58.019Z,15.30
2022-07-25T10:25:25.630Z,15.30
2022-07-25T10:28:01.289Z,15.20
2022-07-25T10:30:34.887Z,15.20
2022-07-25T10:33:12.998Z,15.10
2022-07-25T10:35:40.116Z,15.10
2022-07-25T10:38:07.113Z,15.20
2022-07-25T10:40:43.404Z,15.50
2022-07-25T10:43:14.458Z,15.40
2022-07-25T10:45:58.088Z,15.50
2022-07-25T10:51:04.546Z,15.70
2022-07-25T10:53:38.513Z,15.90
2022-07-25T10:56:20.028Z,16.00
2022-07-25T10:59:01.042Z,16.00
2022-07-25T11:01:36.744Z,16.10
2022-07-25T11:04:16.016Z,16.20
2022-07-25T11:06:43.496Z,16.20
2022-07-25T11:09:40.574Z,16.00
2022-07-25T11:12:08.211Z,15.90
2022-07-25T11:14:37.622Z,15.80
2022-07-25T11:17:22.539Z,15.70
2022-07-25T11:19:58.749Z,15.80
2022-07-25T11:22:27.004Z,15.70
2022-07-25T11:24:54.413Z,15.70
2022-07-25T11:27:22.779Z,16.00
2022-07-25T11:29:50.130Z,16.30
2022-07-25T11:32:17.175Z,16.90
2022-07-25T11:34:52.417Z,17.10
2022-07-25T11:37:20.246Z,17.50
2022-07-25T11:39:48.277Z,17.30
2022-07-25T11:42:17.952Z,17.70
2022-07-25T11:44:50.213Z,17.80
2022-07-25T11:47:26.234Z,17.70
2022-07-25T11:49:54.367Z,17.50
2022-07-25T11:52:24.966Z,17.00
2022-07-25T11:54:57.935Z,16.70
2022-07-25T11:57:30.765Z,16.60
2022-07-25T12:00:00.353Z,17.00
2022-07-25T12:02:28.483Z,17.20
2022-07-25T12:04:56.348Z,17.10
2022-07-25T12:07:33.864Z,16.90
2022-07-25T12:10:00.759Z,16.70
2022-07-25T12:12:27.722Z,16.50
2022-07-25T12:14:54.621Z,16.40
2022-07-25T12:17:21.576Z,16.50
2022-07-25T12:19:48.716Z,16.60
2022-07-25T12:22:15.626Z,16.60
2022-07-25T12:24:42.527Z,16.70
2022-07-25T12:27:09.509Z,16.60
2022-07-25T12:29:36.519Z,16.50
2022-07-25T12:32:03.449Z,16.30
2022-07-25T12:34:30.355Z,16.30
2022-07-25T12:36:57.310Z,16.10
2022-07-25T12:39:24.707Z,15.90
2022-07-25T12:41:51.719Z,15.90
2022-07-25T12:44:18.600Z,15.70
2022-07-25T12:46:49.476Z,15.70
2022-07-25T12:49:17.137Z,15.70
2022-07-25T12:51:44.153Z,15.90
2022-07-25T12:54:11.123Z,16.20
2022-07-25T12:56:38.605Z,16.40
2022-07-25T12:59:05.727Z,16.80
2022-07-25T13:01:32.915Z,17.30
2022-07-25T13:04:00.250Z,17.90
2022-07-25T13:06:27.208Z,18.20
2022-07-25T13:08:54.117Z,18.60
2022-07-25T13:11:22.507Z,18.90
2022-07-25T13:13:51.028Z,18.80
2022-07-25T13:16:19.044Z,18.70
2022-07-25T13:18:46.004Z,18.70
2022-07-25T13:21:12.894Z,18.70
2022-07-25T13:23:40.267Z,18.70
2022-07-25T13:26:08.242Z,18.70
2022-07-25T13:28:35.295Z,18.80
2022-07-25T13:31:02.344Z,18.40
2022-07-25T13:33:29.279Z,18.20
2022-07-25T13:35:56.202Z,18.20
2022-07-25T13:38:23.153Z,18.00
2022-07-25T13:40:50.167Z,17.80
2022-07-25T13:43:17.191Z,17.30
2022-07-25T13:45:44.496Z,17.30
2022-07-25T13:50:58.361Z,16.80
2022-07-25T13:53:29.765Z,16.60
2022-07-25T13:55:58.790Z,16.40
2022-07-25T13:58:26.993Z,16.20
2022-07-25T14:00:56.277Z,16.00
2022-07-25T14:03:23.301Z,16.10
2022-07-25T14:05:50.412Z,16.10
2022-07-25T14:08:17.510Z,16.20
2022-07-25T14:10:44.422Z,16.30
2022-07-25T14:13:13.087Z,16.40
2022-07-25T14:15:40.015Z,16.60
2022-07-25T14:18:07.045Z,16.70
2022-07-25T14:20:33.942Z,16.80
2022-07-25T14:23:00.894Z,16.90
2022-07-25T14:25:27.910Z,17.00
2022-07-25T14:27:54.938Z,17.10
2022-07-25T14:30:21.928Z,17.10
2022-07-25T14:32:48.810Z,17.10
2022-07-25T14:35:15.690Z,16.80
2022-07-25T14:37:42.782Z,16.50
2022-07-25T14:40:12.025Z,16.50
2022-07-25T14:42:40.826Z,16.30
2022-07-25T14:45:09.081Z,16.30
2022-07-25T14:47:36.018Z,16.30
2022-07-25T14:50:03.331Z,16.30
2022-07-25T14:52:30.745Z,16.40
2022-07-25T14:54:58.116Z,16.50
2022-07-25T14:57:25.189Z,16.60
2022-07-25T14:59:52.138Z,16.70
2022-07-25T15:02:19.560Z,16.70
2022-07-25T15:04:46.507Z,16.60
2022-07-25T15:07:13.495Z,16.50
2022-07-25T15:09:40.661Z,16.50
2022-07-25T15:12:09.538Z,16.30
2022-07-25T15:14:39.095Z,16.30
2022-07-25T15:17:06.031Z,16.20
2022-07-25T15:19:33.045Z,16.30
2022-07-25T15:21:59.980Z,16.30
2022-07-25T15:24:29.216Z,16.40
2022-07-25T15:26:56.956Z,16.30
2022-07-25T15:29:23.939Z,16.20
2022-07-25T15:31:51.031Z,16.30
2022-07-25T15:34:18.098Z,16.50
2022-07-25T15:36:45.146Z,16.50
2022-07-25T15:39:12.103Z,16.80
2022-07-25T15:41:39.029Z,16.90
2022-07-25T15:44:06.069Z,17.00
2022-07-25T15:46:33.222Z,16.90
2022-07-25T15:49:00.295Z,16.80
2022-07-25T15:51:27.294Z,16.70
2022-07-25T15:53:54.227Z,16.60
2022-07-25T15:56:21.244Z,16.70
2022-07-25T15:58:49.394Z,16.70
2022-07-25T16:01:16.727Z,16.60
2022-07-25T16:03:43.826Z,16.60
2022-07-25T16:06:13.274Z,16.50
2022-07-25T16:08:43.869Z,16.60
2022-07-25T16:11:10.803Z,16.50
2022-07-25T16:13:37.747Z,16.60
2022-07-25T16:16:05.259Z,16.60
2022-07-25T16:18:32.317Z,16.60
2022-07-25T16:20:59.236Z,16.60
2022-07-25T16:23:28.157Z,16.50
2022-07-25T16:25:55.149Z,16.50
2022-07-25T16:28:22.182Z,16.50
2022-07-25T16:30:49.134Z,16.20
2022-07-25T16:33:16.233Z,16.20
2022-07-25T16:35:43.294Z,16.20
2022-07-25T16:38:10.369Z,16.30
2022-07-25T16:40:37.297Z,16.20
2022-07-25T16:43:04.221Z,16.10
2022-07-25T16:45:31.442Z,16.10
2022-07-25T16:47:58.329Z,16.20
2022-07-25T16:50:25.263Z,16.30
2022-07-25T16:52:53.714Z,16.40
2022-07-25T16:55:20.889Z,16.30
2022-07-25T16:57:47.769Z,16.30
2022-07-25T17:00:14.810Z,16.20
2022-07-25T17:02:43.975Z,16.20
2022-07-25T17:05:11.063Z,16.10
2022-07-25T17:07:39.566Z,16.10
2022-07-25T17:10:08.077Z,16.00
2022-07-25T17:12:35.255Z,15.90
2022-07-25T17:15:02.165Z,15.90
2022-07-25T17:17:29.067Z,15.90
2022-07-25T17:19:59.906Z,15.90
2022-07-25T17:22:27.162Z,15.80
2022-07-25T17:24:54.089Z,15.90
2022-07-25T17:27:21.123Z,15.80
2022-07-25T17:29:48.074Z,15.80
2022-07-25T17:32:15.012Z,15.80
2022-07-25T17:34:41.977Z,15.70
2022-07-25T17:37:08.940Z,15.80
2022-07-25T17:39:35.893Z,15.80
2022-07-25T17:42:07.310Z,15.80
2022-07-25T17:44:35.299Z,15.70
2022-07-25T17:47:03.539Z,15.60
2022-07-25T17:49:30.645Z,15.60
2022-07-25T17:51:57.604Z,15.60
2022-07-25T17:54:24.525Z,15.60
2022-07-25T17:56:51.509Z,15.50
2022-07-25T17:59:18.469Z,15.50
2022-07-25T18:01:45.458Z,15.50
2022-07-25T18:04:14.385Z,15.40
2022-07-25T18:06:41.434Z,15.40
2022-07-25T18:09:08.998Z,15.40
2022-07-25T18:11:36.010Z,15.30
2022-07-25T18:14:02.926Z,15.20
2022-07-25T18:16:30.020Z,15.30
2022-07-25T18:18:57.113Z,15.00
2022-07-25T18:21:24.613Z,15.10
2022-07-25T18:26:19.313Z,14.90
2022-07-25T18:28:46.307Z,14.90
2022-07-25T18:31:13.607Z,14.90
2022-07-25T18:33:40.666Z,14.90
2022-07-25T18:36:08.064Z,14.90
2022-07-25T18:38:36.037Z,14.90
2022-07-25T18:41:27.668Z,14.90
2022-07-25T18:43:51.890Z,14.80
2022-07-25T18:46:19.608Z,14.80
2022-07-25T18:48:47.761Z,14.80
2022-07-25T18:51:14.894Z,14.80
2022-07-25T18:53:45.974Z,14.80
2022-07-25T18:56:14.958Z,14.70
2022-07-25T18:58:41.941Z,14.70
2022-07-25T19:01:09.602Z,14.70
2022-07-25T19:03:37.719Z,14.70
2022-07-25T19:06:07.031Z,14.50
2022-07-25T19:08:34.081Z,14.50
2022-07-25T19:11:01.169Z,14.50
2022-07-25T19:13:48.325Z,14.40
2022-07-25T19:16:16.119Z,14.40
2022-07-25T19:18:43.253Z,14.40
2022-07-25T19:21:11.051Z,14.40
2022-07-25T19:23:38.100Z,14.40
2022-07-25T19:26:05.196Z,14.40
2022-07-25T19:28:32.354Z,14.40
2022-07-25T19:30:59.397Z,14.30
2022-07-25T19:33:35.023Z,14.30
2022-07-25T19:36:04.223Z,14.30
2022-07-25T19:38:31.366Z,14.30
2022-07-25T19:40:59.011Z,14.20
2022-07-25T19:43:25.999Z,14.20
2022-07-25T19:45:52.984Z,14.10
2022-07-25T19:48:23.850Z,14.10
2022-07-25T19:50:52.025Z,14.10
2022-07-25T19:53:19.085Z,14.00
2022-07-25T19:55:46.029Z,14.00
2022-07-25T19:58:13.004Z,13.90
2022-07-25T20:00:40.010Z,13.90
2022-07-25T20:03:07.260Z,13.90
2022-07-25T20:05:34.291Z,13.80
2022-07-25T20:08:01.249Z,13.80
2022-07-25T20:10:28.212Z,13.80
2022-07-25T20:13:00.871Z,13.80
2022-07-25T20:15:28.494Z,13.80
2022-07-25T20:17:56.793Z,13.80
2022-07-25T20:20:24.335Z,13.80
2022-07-25T20:22:52.338Z,13.80
2022-07-25T20:25:19.508Z,13.70
2022-07-25T20:27:46.470Z,13.70
2022-07-25T20:30:13.705Z,13.70
2022-07-25T20:32:40.593Z,13.70
2022-07-25T20:35:08.405Z,13.70
2022-07-25T20:37:35.673Z,13.70
2022-07-25T20:40:02.884Z,13.70
2022-07-25T20:42:29.889Z,13.70
2022-07-25T20:44:56.822Z,13.70
2022-07-25T20:47:25.041Z,13.70
2022-07-25T20:49:52.046Z,13.60
2022-07-25T20:52:19.061Z,13.60
2022-07-25T20:54:46.042Z,13.70
2022-07-25T20:57:14.020Z,13.60
2022-07-25T20:59:40.971Z,13.60
2022-07-25T21:02:07.964Z,13.60
2022-07-25T21:04:34.932Z,13.60
2022-07-25T21:07:01.917Z,13.60
2022-07-25T21:09:32.824Z,13.60
2022-07-25T21:12:01.467Z,13.50
2022-07-25T21:14:28.919Z,13.50
2022-07-25T21:16:55.939Z,13.60
2022-07-25T21:19:23.083Z,13.50
2022-07-25T21:21:50.174Z,13.50
2022-07-25T21:24:17.253Z,13.50
2022-07-25T21:26:44.967Z,13.50
2022-07-25T21:29:12.135Z,13.50
2022-07-25T21:31:39.228Z,13.50
2022-07-25T21:34:06.190Z,13.50
2022-07-25T21:36:34.229Z,13.40
2022-07-25T21:39:01.120Z,13.40
2022-07-25T21:41:28.070Z,13.30
2022-07-25T21:43:55.305Z,13.20
2022-07-25T21:46:22.337Z,13.20
2022-07-25T21:49:08.331Z,13.20
2022-07-25T21:51:40.208Z,13.10
2022-07-25T21:54:08.130Z,13.10
2022-07-25T21:56:35.030Z,13.00
2022-07-25T21:59:02.176Z,13.00
2022-07-25T22:01:29.353Z,12.90
2022-07-25T22:03:56.366Z,12.90
2022-07-25T22:06:23.346Z,12.90
2022-07-25T22:08:50.250Z,12.90
2022-07-25T22:11:42.643Z,12.90
2022-07-25T22:14:04.243Z,12.90
2022-07-25T22:16:31.465Z,12.90
2022-07-25T22:18:58.481Z,12.90
2022-07-25T22:21:25.576Z,12.90
2022-07-25T22:23:52.473Z,12.80
2022-07-25T22:26:20.349Z,12.80
2022-07-25T22:28:48.519Z,12.80
2022-07-25T22:31:15.871Z,12.80
2022-07-25T22:33:42.861Z,12.80
2022-07-25T22:36:10.111Z,12.70
2022-07-25T22:38:37.206Z,12.70
2022-07-25T22:41:04.157Z,12.70
2022-07-25T22:43:56.511Z,12.70
2022-07-25T22:46:19.094Z,12.70
2022-07-25T22:48:46.102Z,12.70
2022-07-25T22:51:13.037Z,12.70
2022-07-25T22:53:39.980Z,12.70
2022-07-25T22:56:06.929Z,12.60
2022-07-25T22:58:33.822Z,12.60
2022-07-25T23:01:00.744Z,12.50
2022-07-25T23:03:31.499Z,12.50
2022-07-25T23:06:00.133Z,12.50
2022-07-25T23:08:27.218Z,12.50
2022-07-25T23:10:54.211Z,12.50
2022-07-25T23:13:21.355Z,12.50
2022-07-25T23:15:50.006Z,12.50
2022-07-25T23:18:19.620Z,12.40
2022-07-25T23:20:46.968Z,12.50
2022-07-25T23:23:14.056Z,12.40
2022-07-25T23:25:41.037Z,12.40
2022-07-25T23:28:07.978Z,12.40
2022-07-25T23:30:40.109Z,12.40
2022-07-25T23:33:08.559Z,12.40
2022-07-25T23:35:35.582Z,12.40
2022-07-25T23:38:02.892Z,12.40
2022-07-25T23:40:29.988Z,12.40
2022-07-25T23:42:57.000Z,12.40
2022-07-25T23:45:27.535Z,12.40
2022-07-25T23:47:55.616Z,12.50
2022-07-25T23:50:23.873Z,12.40
2022-07-25T23:52:50.862Z,12.50
2022-07-25T23:55:17.849Z,12.50
2022-07-25T23:57:44.770Z,12.40
